Terminal Aerodrome Forecast
Issued by NWS

Home | Current Version | Previous Version | Text Only | Print | Product List | Glossary On
Versions: 1 2 3 4 5 6 7 8 9 10 11 12 13 14 15 16 17 18 19 20 21 22 23 24 25 26 27 28 29 30
000
FTUS43 KSGF 181900 AAA
TAFJLN
TAF AMD
KJLN 181909Z 1819/1918 VRB03KT P6SM OVC008
     FM190100 VRB03KT 6SM BR OVC004
     FM190400 00000KT 4SM BR OVC003
     FM190900 VRB03KT 1SM BR OVC002
      TEMPO 1910/1914 1/2SM FG VV002
     FM191500 VRB04KT 3SM BR OVC003=

USA.gov is the U.S. government's official web portal to all federal, state and local government web resources and services.